Time;durP1;ratioP1;P1;durP2;ratioP2;P2;SDS_P1;SDS_P2;PMS_P1;PMS_P2;Temp;Humidity;BMP_temperature;BMP_pressure;BME280_temperature;BME280_humidity;BME280_pressure;Samples;Min_cycle;Max_cycle;Signal;HPM_P1;HPM_P2
2023/06/05 00:00:48;;;;;;;6.03;2.30;;;;;;;16.93;37.56;99718.97;5043637;28;20052;-69
2023/06/05 00:03:14;;;;;;;4.40;2.30;;;;;;;16.83;37.75;99717.47;5020974;28;20101;-68
2023/06/05 00:05:40;;;;;;;7.78;2.30;;;;;;;17.09;37.40;99710.59;5024155;28;20041;-69
2023/06/05 00:08:06;;;;;;;7.68;2.53;;;;;;;17.14;37.14;99719.72;5025560;28;20036;-69
2023/06/05 00:10:36;;;;;;;9.95;2.47;;;;;;;17.54;37.08;99712.72;5025195;28;20051;-69
2023/06/05 00:13:02;;;;;;;2.67;2.00;;;;;;;17.21;37.07;99711.69;5001187;28;20587;-69
2023/06/05 00:15:28;;;;;;;6.97;2.42;;;;;;;17.03;37.09;99722.13;4994435;28;20153;-69
2023/06/05 00:17:55;;;;;;;7.80;2.50;;;;;;;17.27;37.10;99713.56;4994452;28;20109;-69
2023/06/05 00:20:21;;;;;;;5.70;2.40;;;;;;;17.20;37.01;99718.94;4946356;28;20125;-69
2023/06/05 00:22:48;;;;;;;6.80;2.25;;;;;;;17.15;37.24;99712.47;4962151;28;20054;-69
2023/06/05 00:25:15;;;;;;;4.95;2.00;;;;;;;17.36;37.03;99717.78;4962341;28;20066;-68
2023/06/05 00:27:42;;;;;;;6.68;2.40;;;;;;;16.74;37.92;99723.16;4962238;28;20054;-69
2023/06/05 00:30:09;;;;;;;4.05;2.35;;;;;;;17.14;37.39;99726.94;4994767;28;20050;-69
2023/06/05 00:32:36;;;;;;;4.20;2.45;;;;;;;17.11;37.26;99717.44;4978239;28;20038;-69
2023/06/05 00:35:04;;;;;;;4.32;2.08;;;;;;;17.11;37.02;99714.75;4962091;28;20145;-69
2023/06/05 00:37:31;;;;;;;5.20;2.55;;;;;;;17.23;37.22;99713.16;4978013;28;20204;-68
2023/06/05 00:39:57;;;;;;;7.78;2.47;;;;;;;16.79;37.40;99718.88;4961772;28;20072;-69
2023/06/05 00:42:26;;;;;;;5.97;2.70;;;;;;;17.21;37.39;99723.25;4929761;28;20054;-68
2023/06/05 00:44:52;;;;;;;9.13;2.30;;;;;;;17.07;37.11;99715.34;4961467;28;20153;-68
2023/06/05 00:47:19;;;;;;;4.28;2.28;;;;;;;17.12;37.19;99720.94;4997652;28;20145;-68
2023/06/05 00:49:45;;;;;;;4.15;2.20;;;;;;;17.21;36.91;99722.41;5025665;28;20055;-68
2023/06/05 00:52:12;;;;;;;7.82;2.83;;;;;;;17.47;37.18;99726.13;5024494;28;20127;-67
2023/06/05 00:54:37;;;;;;;7.60;3.47;;;;;;;17.20;36.98;99727.00;5040889;28;20529;-69
2023/06/05 00:57:06;;;;;;;8.80;3.08;;;;;;;17.41;37.20;99724.19;5007863;28;20131;-68
2023/06/05 00:59:34;;;;;;;8.02;2.97;;;;;;;17.23;37.48;99721.22;5024809;28;20068;-68
2023/06/05 01:02:02;;;;;;;12.77;3.42;;;;;;;17.16;37.44;99724.91;5024349;28;20040;-68
2023/06/05 01:04:29;;;;;;;5.45;2.38;;;;;;;17.23;37.51;99728.44;5057488;28;20049;-69
2023/06/05 01:07:00;;;;;;;6.55;2.20;;;;;;;17.13;37.30;99730.66;5041180;28;20041;-68
2023/06/05 01:09:28;;;;;;;7.32;3.03;;;;;;;17.12;37.68;99721.78;5057729;28;20472;-69
2023/06/05 01:12:05;;;;;;;5.38;2.88;;;;;;;17.33;38.05;99718.19;5024929;28;20059;-69
2023/06/05 01:14:35;;;;;;;9.43;2.88;;;;;;;17.23;38.06;99715.84;5040858;28;20041;-69
2023/06/05 01:17:02;;;;;;;10.93;2.78;;;;;;;17.06;38.32;99721.72;5056433;28;20138;-68
2023/06/05 01:19:30;;;;;;;10.88;2.72;;;;;;;16.92;37.93;99725.34;5024213;28;20131;-68
2023/06/05 01:22:00;;;;;;;9.45;3.13;;;;;;;17.37;37.85;99720.25;5024154;28;20059;-68
2023/06/05 01:24:30;;;;;;;8.23;3.65;;;;;;;17.14;37.89;99713.53;5023714;28;20061;-69
2023/06/05 01:27:00;;;;;;;7.72;2.60;;;;;;;17.03;37.76;99719.44;5040733;28;20432;-68
2023/06/05 01:29:41;;;;;;;7.55;3.20;;;;;;;17.33;37.90;99715.50;5056390;28;20044;-69
2023/06/05 01:32:16;;;;;;;6.95;2.80;;;;;;;17.45;37.55;99706.69;4999663;28;20073;-70
2023/06/05 01:34:43;;;;;;;7.05;2.40;;;;;;;17.33;37.51;99712.81;5000437;28;20386;-70
2023/06/05 01:37:14;;;;;;;4.57;2.58;;;;;;;17.26;37.70;99701.19;5016306;28;20064;-70
2023/06/05 01:39:42;;;;;;;5.30;2.22;;;;;;;17.40;37.34;99710.97;4984265;28;20125;-69
2023/06/05 01:42:09;;;;;;;7.38;2.80;;;;;;;17.35;37.38;99706.19;4999628;28;20093;-70
2023/06/05 01:44:36;;;;;;;4.85;2.42;;;;;;;17.29;37.76;99716.91;4999544;28;20474;-69
2023/06/05 01:47:01;;;;;;;6.80;2.72;;;;;;;17.16;37.34;99716.84;4983141;28;20115;-68
2023/06/05 01:49:28;;;;;;;4.10;2.05;;;;;;;17.10;37.58;99714.97;4983019;28;20452;-69
2023/06/05 01:51:55;;;;;;;7.68;2.85;;;;;;;17.16;37.29;99723.03;5015779;28;20057;-68
2023/06/05 01:54:23;;;;;;;7.15;3.10;;;;;;;17.13;37.47;99722.59;4999656;28;20496;-68
2023/06/05 01:56:50;;;;;;;6.18;2.50;;;;;;;17.10;37.68;99721.13;4999463;28;20456;-68
2023/06/05 01:59:16;;;;;;;8.55;3.15;;;;;;;17.12;37.71;99726.28;4999316;28;20045;-68
2023/06/05 02:01:46;;;;;;;3.60;2.42;;;;;;;17.07;37.65;99723.41;4983411;28;20045;-68
2023/06/05 02:04:16;;;;;;;7.57;2.50;;;;;;;17.11;37.79;99713.91;5034978;28;20049;-68
2023/06/05 02:06:44;;;;;;;8.20;2.75;;;;;;;17.15;37.64;99728.59;5019897;28;20049;-68
2023/06/05 02:09:12;;;;;;;9.60;2.92;;;;;;;17.13;37.86;99730.66;5003387;28;20061;-68
2023/06/05 02:11:39;;;;;;;6.78;2.65;;;;;;;17.37;37.75;99724.78;5018914;28;20044;-68
2023/06/05 02:14:06;;;;;;;7.22;2.50;;;;;;;17.37;37.78;99725.63;5018503;28;20080;-68
2023/06/05 02:16:33;;;;;;;6.15;2.22;;;;;;;17.45;37.29;99730.03;5002424;28;20045;-68
2023/06/05 02:19:03;;;;;;;7.68;2.33;;;;;;;17.42;37.31;99722.34;5018263;28;20067;-68
2023/06/05 02:21:51;;;;;;;5.15;2.17;;;;;;;17.63;37.04;99723.09;5010718;28;20036;-67
2023/06/05 02:24:18;;;;;;;9.38;3.17;;;;;;;17.69;37.12;99738.41;4986165;28;20084;-68
2023/06/05 02:26:44;;;;;;;7.38;2.65;;;;;;;17.77;36.67;99734.72;5002193;28;20049;-68
2023/06/05 02:29:10;;;;;;;8.27;2.47;;;;;;;17.77;36.66;99734.72;5001905;28;20052;-68
2023/06/05 02:31:36;;;;;;;4.97;2.53;;;;;;;17.85;36.76;99732.66;5002043;28;20118;-68
2023/06/05 02:34:02;;;;;;;8.52;2.72;;;;;;;17.59;37.26;99729.88;5002075;28;20040;-68
2023/06/05 02:36:32;;;;;;;4.20;2.30;;;;;;;17.80;37.00;99726.25;5039143;28;20403;-68
2023/06/05 02:38:59;;;;;;;3.33;2.10;;;;;;;18.18;36.39;99730.88;5039230;28;20105;-69
2023/06/05 02:41:26;;;;;;;2.83;2.10;;;;;;;18.08;36.24;99729.63;5022716;28;20044;-70
2023/06/05 02:43:56;;;;;;;7.88;2.35;;;;;;;18.68;35.86;99732.22;5022606;28;20048;-68
2023/06/05 02:46:25;;;;;;;4.93;2.45;;;;;;;18.27;35.80;99737.72;5021776;28;20040;-70
2023/06/05 02:48:52;;;;;;;10.70;2.72;;;;;;;18.08;36.25;99735.81;5038116;28;20143;-68
2023/06/05 02:51:18;;;;;;;3.50;2.15;;;;;;;18.17;36.45;99741.84;5021541;28;20080;-68
2023/06/05 02:53:46;;;;;;;4.85;2.65;;;;;;;18.10;36.82;99732.91;5022144;28;20044;-68
2023/06/05 02:56:14;;;;;;;8.95;2.85;;;;;;;18.02;37.11;99733.94;5022371;28;20090;-69
2023/06/05 02:58:43;;;;;;;6.93;3.03;;;;;;;18.26;36.93;99733.38;5054281;28;20061;-68
2023/06/05 03:01:10;;;;;;;12.10;3.80;;;;;;;18.23;36.52;99743.72;5022322;28;20036;-69
2023/06/05 03:03:41;;;;;;;5.80;2.95;;;;;;;18.15;36.71;99738.53;5055130;28;20102;-68
2023/06/05 03:06:09;;;;;;;8.88;2.55;;;;;;;18.27;36.77;99739.56;5022317;28;20143;-68
2023/06/05 03:08:43;;;;;;;5.25;3.22;;;;;;;18.24;36.84;99738.13;5039358;28;20052;-69
2023/06/05 03:11:14;;;;;;;6.97;2.95;;;;;;;18.22;37.23;99739.38;5023315;28;20399;-69
2023/06/05 03:13:40;;;;;;;6.20;2.38;;;;;;;18.32;37.13;99742.47;5014091;28;20140;-69
2023/06/05 03:16:07;;;;;;;6.15;2.70;;;;;;;18.31;37.15;99746.22;4981668;28;20060;-68
2023/06/05 03:18:36;;;;;;;6.15;2.67;;;;;;;18.35;37.20;99742.06;5014604;28;20200;-68
2023/06/05 03:21:03;;;;;;;10.30;3.13;;;;;;;18.53;37.31;99738.81;4997894;28;20052;-68
2023/06/05 03:23:29;;;;;;;14.07;3.60;;;;;;;18.88;37.07;99748.31;4997526;28;20060;-69
2023/06/05 03:26:02;;;;;;;10.32;3.00;;;;;;;19.07;37.07;99747.47;4983278;28;20041;-69
2023/06/05 03:28:33;;;;;;;9.75;3.20;;;;;;;19.25;36.58;99747.66;4997916;28;20152;-68
2023/06/05 03:31:01;;;;;;;7.57;3.20;;;;;;;19.29;36.65;99744.34;5014024;28;20432;-69
2023/06/05 03:33:31;;;;;;;;;;;;;;;19.99;35.95;99748.81;4999199;28;20056;-69
2023/06/05 03:35:57;;;;;;;12.82;3.22;;;;;;;19.57;35.95;99739.47;5013590;28;19924;-68
2023/06/05 03:38:24;;;;;;;8.70;3.20;;;;;;;19.68;36.02;99738.00;4981424;28;20131;-69
2023/06/05 03:40:50;;;;;;;13.57;3.72;;;;;;;19.82;35.88;99735.03;4997153;28;20501;-67
2023/06/05 03:43:19;;;;;;;10.23;2.90;;;;;;;19.83;36.12;99731.28;4981509;28;20415;-67
2023/06/05 03:45:46;;;;;;;8.35;2.90;;;;;;;20.11;35.72;99734.44;5019971;28;20071;-69
2023/06/05 03:48:13;;;;;;;6.22;2.47;;;;;;;19.94;34.95;99735.19;5005028;28;20048;-69
2023/06/05 03:50:42;;;;;;;5.78;2.50;;;;;;;19.89;35.02;99741.22;5022104;28;20549;-69
2023/06/05 03:53:09;;;;;;;4.95;2.45;;;;;;;19.83;35.52;99731.28;5037582;28;20048;-68
2023/06/05 03:55:44;;;;;;;4.25;2.58;;;;;;;19.80;35.88;99729.00;5021677;28;20095;-68
2023/06/05 03:58:16;;;;;;;6.57;2.50;;;;;;;20.15;35.66;99723.25;5053984;28;20190;-66
2023/06/05 04:00:48;;;;;;;5.00;2.55;;;;;;;20.42;35.41;99739.03;5054016;28;20055;-66
2023/06/05 04:03:15;;;;;;;3.25;2.30;;;;;;;20.27;35.67;99735.00;5017168;28;20115;-65
2023/06/05 04:05:42;;;;;;;6.03;2.10;;;;;;;20.38;34.78;99724.34;5025482;28;20472;-64
2023/06/05 04:08:11;;;;;;;5.72;2.33;;;;;;;20.41;34.64;99733.88;5032207;28;20496;-63
2023/06/05 04:10:38;;;;;;;3.90;2.30;;;;;;;20.04;34.83;99724.75;5033440;28;20158;-64
2023/06/05 04:13:04;;;;;;;4.88;2.47;;;;;;;20.51;34.62;99732.31;5015741;28;20091;-64
2023/06/05 04:15:33;;;;;;;4.68;2.80;;;;;;;20.30;35.07;99721.06;5016799;28;20105;-72
2023/06/05 04:18:03;;;;;;;6.25;2.70;;;;;;;20.60;35.25;99717.53;5032994;28;20040;-67
2023/06/05 04:20:30;;;;;;;6.40;2.40;;;;;;;20.59;34.75;99736.66;5016727;28;20065;-63
2023/06/05 04:22:56;;;;;;;8.25;2.28;;;;;;;20.63;34.83;99737.84;5016474;28;20045;-65
2023/06/05 04:25:22;;;;;;;4.93;2.25;;;;;;;20.79;34.38;99738.13;5000383;28;20055;-63
2023/06/05 04:27:51;;;;;;;4.43;2.30;;;;;;;21.03;34.66;99734.63;5033276;28;20481;-65
2023/06/05 04:30:17;;;;;;;8.05;2.55;;;;;;;20.90;34.54;99737.41;5016806;28;20045;-65
2023/06/05 04:32:54;;;;;;;4.50;2.50;;;;;;;21.10;34.60;99740.78;5016638;28;20048;-64
2023/06/05 04:35:21;;;;;;;9.13;2.45;;;;;;;21.19;34.42;99735.88;5018183;28;20098;-64
2023/06/05 04:37:47;;;;;;;3.95;2.40;;;;;;;21.25;34.66;99732.31;5031290;28;20052;-64
2023/06/05 04:40:17;;;;;;;5.18;2.50;;;;;;;21.59;34.89;99734.41;5016520;28;20049;-66
2023/06/05 04:42:43;;;;;;;7.57;2.78;;;;;;;21.35;34.29;99732.59;4992368;28;20046;-65
2023/06/05 04:45:09;;;;;;;3.80;2.13;;;;;;;21.44;33.81;99739.38;4975297;28;20505;-65
2023/06/05 04:47:39;;;;;;;5.82;2.38;;;;;;;21.34;33.72;99731.78;4943726;28;20473;-65
2023/06/05 04:50:06;;;;;;;4.57;2.05;;;;;;;21.65;33.34;99719.97;4976424;28;20115;-65
2023/06/05 04:52:35;;;;;;;5.60;2.03;;;;;;;21.81;33.35;99729.38;4995845;28;20038;-65
2023/06/05 04:55:01;;;;;;;10.32;4.15;;;;;;;21.88;33.02;99720.13;4996150;28;20414;-65
2023/06/05 04:57:31;;;;;;;4.38;2.60;;;;;;;21.92;33.13;99729.44;4980778;28;20081;-65
2023/06/05 04:59:58;;;;;;;8.57;2.00;;;;;;;22.15;32.96;99737.66;4995855;28;20079;-65
2023/06/05 05:02:26;;;;;;;7.57;2.00;;;;;;;22.25;32.64;99732.50;4978518;28;20050;-65
2023/06/05 05:04:52;;;;;;;6.05;2.75;;;;;;;22.34;32.74;99744.63;5012137;28;20084;-64
2023/06/05 05:07:18;;;;;;;5.43;2.20;;;;;;;22.38;32.38;99737.72;4996032;28;20054;-65
2023/06/05 05:09:46;;;;;;;6.78;2.10;;;;;;;22.36;32.18;99729.00;4964013;28;20037;-64
2023/06/05 05:12:13;;;;;;;7.95;2.53;;;;;;;22.57;32.79;99730.38;4978900;28;20103;-64
2023/06/05 05:14:40;;;;;;;4.68;1.58;;;;;;;22.59;32.10;99733.66;5011963;28;20057;-65
2023/06/05 05:17:07;;;;;;;7.80;2.20;;;;;;;22.84;31.82;99742.41;4979485;28;20046;-65
2023/06/05 05:19:34;;;;;;;10.30;2.22;;;;;;;22.96;31.50;99726.97;5006900;28;20063;-65
2023/06/05 05:22:03;;;;;;;4.78;2.15;;;;;;;23.17;31.26;99732.63;5052366;28;20067;-65
2023/06/05 05:24:29;;;;;;;2.50;1.85;;;;;;;23.11;31.05;99743.63;5035771;28;20060;-66
2023/06/05 05:26:56;;;;;;;3.03;2.13;;;;;;;23.34;31.40;99737.38;5003296;28;20056;-66
2023/06/05 05:29:22;;;;;;;4.18;2.10;;;;;;;23.16;31.61;99736.41;5036074;28;20045;-65
2023/06/05 05:31:48;;;;;;;7.45;2.08;;;;;;;23.31;31.43;99740.56;5035941;28;20094;-66
2023/06/05 05:34:15;;;;;;;4.53;2.10;;;;;;;23.55;30.85;99744.88;5052335;28;20515;-65
2023/06/05 05:36:41;;;;;;;3.60;2.28;;;;;;;23.83;30.02;99742.22;5035780;28;20076;-65
2023/06/05 05:39:07;;;;;;;3.80;1.90;;;;;;;24.01;29.75;99750.19;5035888;28;20041;-66
2023/06/05 05:41:34;;;;;;;6.00;1.90;;;;;;;24.34;29.17;99750.28;5019376;28;20475;-65
2023/06/05 05:44:00;;;;;;;6.60;1.85;;;;;;;24.36;29.11;99753.56;5018729;28;20056;-65
2023/06/05 05:46:26;;;;;;;4.38;2.00;;;;;;;23.72;29.50;99746.63;5051463;28;20392;-64
2023/06/05 05:48:51;;;;;;;9.35;2.13;;;;;;;23.91;29.81;99744.53;5020996;28;20844;-65
2023/06/05 05:51:17;;;;;;;4.60;1.80;;;;;;;24.29;29.70;99751.03;5019989;28;20083;-65
2023/06/05 05:53:43;;;;;;;5.45;1.90;;;;;;;24.38;29.90;99754.16;5068940;28;20045;-66
2023/06/05 05:56:10;;;;;;;4.88;1.85;;;;;;;24.65;29.32;99757.88;5072746;28;20385;-65
2023/06/05 05:58:36;;;;;;;6.25;1.92;;;;;;;24.69;29.57;99753.66;5054845;28;20040;-66
2023/06/05 06:01:02;;;;;;;4.10;1.73;;;;;;;24.73;29.16;99766.50;5038499;28;20118;-64
2023/06/05 06:03:29;;;;;;;4.85;2.10;;;;;;;24.98;29.35;99766.09;5022662;28;20047;-65
2023/06/05 06:05:57;;;;;;;4.72;2.17;;;;;;;25.45;28.54;99767.34;5070272;28;20353;-65
2023/06/05 06:08:22;;;;;;;8.52;1.98;;;;;;;25.47;28.03;99756.22;5071812;28;20433;-65
2023/06/05 06:10:48;;;;;;;6.85;2.95;;;;;;;25.65;28.08;99764.06;5071513;28;20048;-65
2023/06/05 06:13:14;;;;;;;3.85;1.90;;;;;;;25.61;27.97;99766.50;5037365;28;20467;-64
2023/06/05 06:15:40;;;;;;;3.67;2.10;;;;;;;25.93;27.83;99751.13;5055089;28;20090;-64
2023/06/05 06:18:07;;;;;;;4.18;2.15;;;;;;;26.23;27.25;99761.56;5038186;28;20131;-66
2023/06/05 06:20:35;;;;;;;8.65;2.13;;;;;;;25.78;27.46;99759.09;5072476;28;20037;-65
2023/06/05 06:23:05;;;;;;;7.13;2.13;;;;;;;26.04;27.52;99761.06;5072511;28;20497;-65
2023/06/05 06:25:31;;;;;;;4.25;1.73;;;;;;;26.35;27.27;99756.78;5054870;28;20151;-65
2023/06/05 06:27:59;;;;;;;3.80;1.65;;;;;;;26.41;27.05;99759.31;5038134;28;20044;-66
2023/06/05 06:30:27;;;;;;;3.63;1.85;;;;;;;26.39;26.64;99761.44;5038365;28;20091;-66
2023/06/05 06:32:57;;;;;;;5.05;1.67;;;;;;;26.57;26.39;99751.25;5055058;28;20105;-65
2023/06/05 06:35:26;;;;;;;2.58;1.50;;;;;;;26.76;26.72;99747.91;5055207;28;20051;-65
2023/06/05 06:37:56;;;;;;;5.22;1.77;;;;;;;27.48;26.30;99751.72;5038184;28;20105;-65
2023/06/05 06:40:22;;;;;;;8.60;2.03;;;;;;;27.35;25.69;99751.38;5054554;28;20393;-66
2023/06/05 06:42:50;;;;;;;4.13;1.92;;;;;;;27.90;25.06;99762.56;5054342;28;20503;-65
2023/06/05 06:45:32;;;;;;;2.35;1.40;;;;;;;28.17;24.29;99752.28;5023612;28;20036;-69
2023/06/05 06:47:59;;;;;;;3.88;1.73;;;;;;;28.00;24.28;99749.78;5037696;28;20066;-65
2023/06/05 06:50:26;;;;;;;5.57;1.45;;;;;;;28.16;24.46;99745.19;5004961;28;20109;-66
2023/06/05 06:52:52;;;;;;;4.18;1.50;;;;;;;28.10;24.49;99751.72;5038018;28;20392;-66
2023/06/05 06:55:18;;;;;;;3.08;1.40;;;;;;;27.81;24.68;99747.78;5037784;28;20040;-66
2023/06/05 06:57:45;;;;;;;3.78;1.33;;;;;;;27.71;24.86;99745.00;5020894;28;20972;-67
2023/06/05 07:00:12;;;;;;;8.25;1.70;;;;;;;27.44;25.00;99747.03;5037554;28;20424;-65
2023/06/05 07:02:40;;;;;;;4.72;1.40;;;;;;;27.26;25.98;99751.03;5020701;28;20055;-66
2023/06/05 07:05:06;;;;;;;2.65;1.30;;;;;;;26.98;25.99;99756.00;5041862;28;20134;-66
2023/06/05 07:07:32;;;;;;;4.15;1.30;;;;;;;26.95;26.49;99749.16;5050673;28;20033;-66
2023/06/05 07:09:58;;;;;;;5.07;1.63;;;;;;;26.73;26.31;99742.97;5001184;28;20091;-68
2023/06/05 07:12:24;;;;;;;5.97;1.40;;;;;;;26.94;26.49;99741.25;5048533;28;20053;-67
2023/06/05 07:14:50;;;;;;;4.03;1.52;;;;;;;27.13;26.78;99742.47;5015511;28;20052;-65
2023/06/05 07:17:16;;;;;;;3.83;1.45;;;;;;;27.42;26.28;99741.03;5048128;28;20045;-65
2023/06/05 07:19:43;;;;;;;8.98;1.67;;;;;;;27.18;26.69;99739.78;5049007;28;20041;-65
2023/06/05 07:22:09;;;;;;;2.58;1.50;;;;;;;26.86;26.31;99741.72;5032124;28;20189;-66
2023/06/05 07:24:36;;;;;;;2.20;1.05;;;;;;;27.27;26.38;99740.94;5049280;28;20076;-66
2023/06/05 07:27:03;;;;;;;5.28;1.40;;;;;;;28.00;24.88;99746.22;5032279;28;20131;-65
2023/06/05 07:29:29;;;;;;;2.67;1.73;;;;;;;28.43;24.72;99744.97;5000630;28;20037;-65
2023/06/05 07:31:56;;;;;;;2.25;1.60;;;;;;;29.33;23.73;99742.25;5033711;28;20063;-65
2023/06/05 07:34:24;;;;;;;2.92;1.88;;;;;;;29.50;22.97;99743.56;5036857;28;20037;-65
2023/06/05 07:36:51;;;;;;;3.92;1.88;;;;;;;30.93;21.56;99748.81;5037045;28;20049;-65
2023/06/05 07:39:19;;;;;;;1.77;1.15;;;;;;;32.45;20.13;99744.84;5037207;28;20048;-66
2023/06/05 07:41:46;;;;;;;2.35;1.25;;;;;;;34.22;18.74;99755.06;5020566;28;20051;-65
2023/06/05 07:44:13;;;;;;;3.35;1.20;;;;;;;36.05;16.69;99745.34;5036837;28;20041;-66
2023/06/05 07:46:43;;;;;;;5.22;1.20;;;;;;;35.79;16.11;99749.97;5032365;28;20052;-65
2023/06/05 07:49:09;;;;;;;5.15;1.30;;;;;;;36.79;15.59;99743.28;5001105;28;20045;-66
2023/06/05 07:51:36;;;;;;;2.30;1.02;;;;;;;38.19;13.58;99740.19;5050951;28;20055;-66
2023/06/05 07:54:05;;;;;;;5.28;1.35;;;;;;;38.82;13.40;99739.00;5033314;28;20033;-66
2023/06/05 07:56:32;;;;;;;2.80;1.20;;;;;;;40.37;12.00;99753.44;5050790;28;20494;-66
2023/06/05 07:58:57;;;;;;;1.80;1.20;;;;;;;40.41;12.26;99738.50;5033413;28;20132;-66
2023/06/05 08:01:23;;;;;;;4.20;1.08;;;;;;;37.29;13.80;99730.47;5016817;28;20127;-66
2023/06/05 08:03:50;;;;;;;5.63;1.65;;;;;;;36.01;15.32;99726.94;5033531;28;20076;-65
2023/06/05 08:06:15;;;;;;;4.47;1.15;;;;;;;34.73;16.22;99723.53;5033263;28;20095;-65
2023/06/05 08:08:43;;;;;;;3.97;1.20;;;;;;;33.94;16.93;99717.63;5016671;28;20129;-65
2023/06/05 08:11:09;;;;;;;4.63;1.48;;;;;;;34.39;17.40;99718.56;5033147;28;20484;-66
2023/06/05 08:13:37;;;;;;;2.45;1.20;;;;;;;34.58;16.90;99708.19;5050263;28;20045;-66
2023/06/05 08:16:05;;;;;;;1.90;1.05;;;;;;;34.06;16.82;99723.44;5033137;28;20048;-66
2023/06/05 08:18:31;;;;;;;2.28;1.20;;;;;;;34.87;16.17;99721.56;5033209;28;20135;-66
2023/06/05 08:20:57;;;;;;;4.30;1.35;;;;;;;36.57;15.18;99724.88;5033446;28;20164;-66
2023/06/05 08:23:22;;;;;;;12.10;1.77;;;;;;;37.99;14.25;99716.78;5050389;28;20531;-66
2023/06/05 08:25:48;;;;;;;8.57;1.80;;;;;;;38.69;13.42;99719.53;5034414;28;20334;-66
2023/06/05 08:28:15;;;;;;;2.83;1.25;;;;;;;39.30;13.08;99720.53;5037159;28;20472;-66
2023/06/05 08:30:41;;;;;;;1.60;1.10;;;;;;;39.37;12.53;99712.41;5053685;28;20041;-66
2023/06/05 08:33:07;;;;;;;7.32;1.83;;;;;;;38.53;13.18;99723.25;5036937;28;20435;-66
2023/06/05 08:35:34;;;;;;;3.35;1.10;;;;;;;37.71;13.93;99712.88;5004358;28;20048;-66
2023/06/05 08:38:00;;;;;;;8.35;1.40;;;;;;;37.80;13.85;99705.31;5036794;28;20091;-66
2023/06/05 08:40:28;;;;;;;4.18;1.20;;;;;;;37.31;13.89;99717.13;5037124;28;20053;-66
2023/06/05 08:42:54;;;;;;;2.13;0.90;;;;;;;36.17;14.67;99704.03;5037256;28;20453;-65
2023/06/05 08:45:20;;;;;;;3.08;1.20;;;;;;;32.97;16.94;99679.66;5020371;28;20055;-65
2023/06/05 08:47:50;;;;;;;5.10;1.20;;;;;;;31.85;19.05;99698.97;5019668;28;20056;-65
2023/06/05 08:50:16;;;;;;;19.50;2.45;;;;;;;31.78;19.54;99692.19;5019985;28;20071;-65
2023/06/05 08:52:43;;;;;;;2.67;1.52;;;;;;;31.61;19.41;99678.94;5019891;28;20067;-65
2023/06/05 08:55:10;;;;;;;3.72;1.10;;;;;;;30.92;19.86;99690.38;5036520;28;20136;-65
2023/06/05 08:57:38;;;;;;;6.07;1.38;;;;;;;30.85;20.54;99687.16;5036279;28;20056;-65
2023/06/05 09:00:07;;;;;;;1.92;1.15;;;;;;;30.46;21.16;99677.34;5020563;28;20037;-65
2023/06/05 09:02:34;;;;;;;4.90;1.15;;;;;;;29.68;21.33;99675.66;5052911;28;20078;-65
2023/06/05 09:05:01;;;;;;;1.90;1.23;;;;;;;28.89;22.60;99681.84;5053680;28;20076;-66
2023/06/05 09:07:29;;;;;;;2.17;1.10;;;;;;;29.50;21.98;99690.75;5036460;28;20147;-65
2023/06/05 09:09:55;;;;;;;4.30;2.13;;;;;;;30.60;21.53;99689.31;5036417;28;20082;-65
2023/06/05 09:12:21;;;;;;;2.70;1.63;;;;;;;32.78;18.69;99698.09;5019070;28;20045;-65
2023/06/05 09:14:47;;;;;;;10.43;1.70;;;;;;;34.58;16.99;99699.91;5036734;28;20044;-65
2023/06/05 09:17:13;;;;;;;4.75;1.13;;;;;;;35.68;15.26;99704.41;5035855;28;20041;-65
2023/06/05 09:19:42;;;;;;;3.33;1.45;;;;;;;36.44;15.27;99673.31;5018453;28;20044;-65
2023/06/05 09:22:09;;;;;;;6.03;1.40;;;;;;;37.25;14.36;99687.97;5036344;28;20053;-65
2023/06/05 09:24:36;;;;;;;2.85;1.08;;;;;;;35.72;15.33;99675.78;5035785;28;20583;-68
2023/06/05 09:27:11;;;;;;;2.17;1.00;;;;;;;34.05;17.02;99668.59;5019693;28;20438;-65
2023/06/05 09:29:39;;;;;;;5.20;1.13;;;;;;;33.45;17.27;99661.63;5020661;28;20044;-65
2023/06/05 09:32:07;;;;;;;1.50;1.08;;;;;;;32.70;17.79;99663.84;5035658;28;20068;-66
2023/06/05 09:34:35;;;;;;;2.83;1.05;;;;;;;32.37;18.34;99660.28;5053120;28;20044;-65
2023/06/05 09:37:03;;;;;;;1.38;1.20;;;;;;;32.35;18.28;99662.50;5035423;28;20045;-65
2023/06/05 09:39:30;;;;;;;4.53;1.15;;;;;;;32.40;18.05;99647.84;5035572;28;20037;-65
2023/06/05 09:41:57;;;;;;;5.13;1.30;;;;;;;32.24;18.25;99655.53;5035880;28;20037;-65
2023/06/05 09:44:24;;;;;;;3.17;1.33;;;;;;;32.05;18.71;99660.22;5035511;28;20060;-65
2023/06/05 09:46:52;;;;;;;6.40;1.45;;;;;;;32.17;18.99;99678.97;5045361;28;20057;-65
2023/06/05 09:49:19;;;;;;;2.63;1.40;;;;;;;33.14;17.23;99635.81;5052052;28;20477;-65
2023/06/05 09:51:45;;;;;;;2.20;1.30;;;;;;;35.25;16.16;99637.94;5053217;28;20064;-65
2023/06/05 09:54:12;;;;;;;4.00;1.40;;;;;;;36.50;14.42;99633.25;5052186;28;20116;-66
2023/06/05 09:56:40;;;;;;;3.58;1.33;;;;;;;38.14;13.12;99662.69;5051897;28;20052;-66
2023/06/05 09:59:09;;;;;;;4.38;1.60;;;;;;;38.47;13.51;99628.25;5052171;28;20479;-66
2023/06/05 10:01:36;;;;;;;3.00;1.40;;;;;;;38.88;12.98;99666.25;5019358;28;20126;-66
2023/06/05 10:04:07;;;;;;;3.55;1.42;;;;;;;39.14;12.52;99646.50;5034927;28;20505;-66
2023/06/05 10:06:34;;;;;;;6.63;1.25;;;;;;;36.62;14.67;99640.88;5019019;28;20049;-72
2023/06/05 10:09:00;;;;;;;4.00;1.30;;;;;;;37.09;13.21;99648.88;5051837;28;20048;-65
2023/06/05 10:11:27;;;;;;;4.72;1.15;;;;;;;38.33;12.96;99636.09;5018248;28;20151;-66
2023/06/05 10:13:54;;;;;;;4.53;1.20;;;;;;;38.74;11.95;99638.78;5051546;28;20111;-66
2023/06/05 10:16:21;;;;;;;1.90;1.25;;;;;;;40.48;11.21;99637.63;5035354;28;20040;-66
2023/06/05 10:18:48;;;;;;;2.00;1.17;;;;;;;40.51;10.77;99634.94;5051340;28;20361;-66
2023/06/05 10:21:17;;;;;;;8.93;1.50;;;;;;;41.89;10.30;99653.25;5034571;28;20465;-66
2023/06/05 10:23:45;;;;;;;3.45;1.10;;;;;;;40.75;10.67;99637.63;5018644;28;20064;-66
2023/06/05 10:26:22;;;;;;;2.35;1.10;;;;;;;37.91;12.33;99639.19;5018153;28;20135;-66
2023/06/05 10:29:05;;;;;;;3.88;1.00;;;;;;;36.62;13.90;99633.38;5051622;28;20393;-66
2023/06/05 10:31:37;;;;;;;5.45;1.17;;;;;;;33.93;15.87;99611.28;5034743;28;20086;-66
2023/06/05 10:34:14;;;;;;;2.40;1.17;;;;;;;29.88;19.71;99612.53;5051686;28;20048;-65
2023/06/05 10:36:47;;;;;;;1.60;1.30;;;;;;;29.15;21.07;99617.78;5051391;28;20056;-65
2023/06/05 10:39:14;;;;;;;2.05;1.08;;;;;;;28.69;21.72;99623.66;5051143;28;20041;-65
2023/06/05 10:41:40;;;;;;;2.35;1.17;;;;;;;28.38;21.93;99614.63;5001729;28;20037;-65
2023/06/05 10:44:06;;;;;;;1.48;1.30;;;;;;;28.93;21.76;99575.47;5034798;28;20051;-65
2023/06/05 10:46:35;;;;;;;4.50;1.30;;;;;;;28.15;22.89;99601.53;5050985;28;20048;-65
2023/06/05 10:49:07;;;;;;;2.05;1.17;;;;;;;28.52;21.88;99602.09;5050503;28;20402;-65
2023/06/05 10:51:44;;;;;;;2.13;1.05;;;;;;;27.17;22.96;99590.88;5051198;28;20118;-65
2023/06/05 10:54:15;;;;;;;2.97;1.25;;;;;;;27.75;22.18;99609.63;5051424;28;20049;-65
2023/06/05 10:57:02;;;;;;;5.35;0.90;;;;;;;28.81;21.31;99594.91;5051756;28;20360;-65
2023/06/05 10:59:38;;;;;;;3.30;1.55;;;;;;;29.89;20.42;99589.53;5051734;28;20049;-65
2023/06/05 11:02:06;;;;;;;3.35;1.20;;;;;;;29.93;19.61;99596.06;5018060;28;20037;-65
2023/06/05 11:04:47;;;;;;;2.80;1.20;;;;;;;31.31;18.04;99607.94;5058002;28;20053;-66
2023/06/05 11:07:16;;;;;;;1.52;1.00;;;;;;;30.21;18.41;99598.06;5070769;28;20040;-67
2023/06/05 11:10:01;;;;;;;3.15;1.20;;;;;;;30.33;18.91;99601.25;5037094;28;20071;-65
2023/06/05 11:12:35;;;;;;;1.60;1.13;;;;;;;28.37;21.47;99612.19;5053047;28;20066;-66
2023/06/05 11:15:07;;;;;;;5.55;2.85;;;;;;;29.02;20.78;99591.03;5071306;28;20053;-65
2023/06/05 11:17:36;;;;;;;6.25;3.33;;;;;;;29.41;20.66;99597.47;5055249;28;20083;-64
2023/06/05 11:20:09;;;;;;;7.25;4.38;;;;;;;29.20;21.43;99584.16;5054042;28;20093;-64
2023/06/05 11:22:54;;;;;;;3.55;1.70;;;;;;;29.73;20.56;99587.97;5038067;28;20064;-65
2023/06/05 11:25:21;;;;;;;2.08;1.27;;;;;;;29.33;21.04;99580.78;5053501;28;20055;-64
2023/06/05 11:27:51;;;;;;;7.55;1.80;;;;;;;29.70;21.00;99583.06;5070380;28;20051;-64
2023/06/05 11:30:22;;;;;;;;;;;;;;;30.03;20.00;99577.63;5071685;28;20135;-61
2023/06/05 11:32:51;;;;;;;6.45;2.53;;;;;;;29.82;20.99;99572.59;5070656;28;19989;-64
2023/06/05 11:35:20;;;;;;;3.90;1.60;;;;;;;29.74;20.77;99581.41;5037122;28;20139;-64
2023/06/05 11:37:47;;;;;;;3.13;2.30;;;;;;;29.45;20.87;99581.28;5053906;28;20052;-64